ZSWIN KPDX-KSAN
Flight info
| Callsign | ZSWIN |
|---|---|
| Flight time | N/A |
| Altitude | VFR/060 |
| Route | VFR DEP S |
| Aircraft | SF50/L-VGD/C |
Departure
| Time | 2026-05-06 07:15 |
|---|---|
| Airport | Portland International Airport (KPDX) |
Arrival
| Time | N/A |
|---|---|
| Airport | San Diego International Airport (KSAN) |
| Time | Latitude | Longitude | Altitude | Speed | Heading |
|---|---|---|---|---|---|
| 2026-05-06 07:01 | 45.58723 | -122.58527 | 20 ft | 0 kts | 238° |
| 2026-05-06 07:04 | 45.58730 | -122.58518 | 20 ft | 4 kts | 40° |
| 2026-05-06 07:04 | 45.58762 | -122.58456 | 20 ft | 11 kts | 66° |
| 2026-05-06 07:04 | 45.58787 | -122.58312 | 20 ft | 17 kts | 84° |
| 2026-05-06 07:04 | 45.58807 | -122.58159 | 20 ft | 17 kts | 122° |
| 2026-05-06 07:05 | 45.58740 | -122.57985 | 20 ft | 23 kts | 118° |
| 2026-05-06 07:05 | 45.58649 | -122.57751 | 20 ft | 30 kts | 118° |
| 2026-05-06 07:05 | 45.58536 | -122.57457 | 20 ft | 35 kts | 118° |
| 2026-05-06 07:05 | 45.58414 | -122.57144 | 20 ft | 35 kts | 119° |
| 2026-05-06 07:06 | 45.58342 | -122.56928 | 20 ft | 9 kts | 81° |
| 2026-05-06 07:06 | 45.58346 | -122.56911 | 20 ft | 0 kts | 59° |
| 2026-05-06 07:14 | 45.58351 | -122.56898 | 20 ft | 6 kts | 59° |
| 2026-05-06 07:14 | 45.58433 | -122.56877 | 20 ft | 22 kts | 296° |
| 2026-05-06 07:15 | 45.58609 | -122.57333 | 20 ft | 81 kts | 299° |
| 2026-05-06 07:15 | 45.58931 | -122.58195 | 194 ft | 103 kts | 298° |
| 2026-05-06 07:15 | 45.59284 | -122.59087 | 614 ft | 108 kts | 298° |
| 2026-05-06 07:15 | 45.59663 | -122.60055 | 960 ft | 115 kts | 298° |
| 2026-05-06 07:16 | 45.60055 | -122.61063 | 1364 ft | 117 kts | 298° |
| 2026-05-06 07:16 | 45.60448 | -122.62071 | 1776 ft | 119 kts | 298° |
| 2026-05-06 07:16 | 45.60846 | -122.63092 | 2192 ft | 119 kts | 298° |
| 2026-05-06 07:16 | 45.61248 | -122.64121 | 2609 ft | 120 kts | 298° |
| 2026-05-06 07:17 | 45.61509 | -122.65231 | 3007 ft | 121 kts | 264° |
| 2026-05-06 07:17 | 45.60888 | -122.66470 | 3544 ft | 122 kts | 201° |
| 2026-05-06 07:17 | 45.60355 | -122.66676 | 3813 ft | 122 kts | 187° |
| 2026-05-06 07:17 | 45.59513 | -122.66730 | 4215 ft | 123 kts | 170° |
| 2026-05-06 07:18 | 45.58689 | -122.66390 | 4625 ft | 124 kts | 158° |
| 2026-05-06 07:18 | 45.57826 | -122.65912 | 4867 ft | 141 kts | 158° |
| 2026-05-06 07:18 | 45.56920 | -122.65421 | 5343 ft | 139 kts | 158° |
| 2026-05-06 07:18 | 45.56028 | -122.64947 | 5810 ft | 137 kts | 159° |
| 2026-05-06 07:19 | 45.55082 | -122.64449 | 6043 ft | 155 kts | 159° |
| 2026-05-06 07:19 | 45.53971 | -122.63864 | 6041 ft | 186 kts | 159° |
| 2026-05-06 07:19 | 45.52679 | -122.63186 | 6028 ft | 210 kts | 159° |
| 2026-05-06 07:19 | 45.51256 | -122.62440 | 6020 ft | 228 kts | 159° |
| 2026-05-06 07:20 | 45.49707 | -122.61631 | 6014 ft | 241 kts | 159° |
| 2026-05-06 07:20 | 45.48104 | -122.60793 | 6011 ft | 252 kts | 159° |
| 2026-05-06 07:20 | 45.46440 | -122.59927 | 6008 ft | 259 kts | 159° |
| 2026-05-06 07:20 | 45.44714 | -122.59029 | 6006 ft | 265 kts | 159° |
| 2026-05-06 07:21 | 45.42981 | -122.58128 | 6004 ft | 268 kts | 159° |
| 2026-05-06 07:21 | 45.41228 | -122.57217 | 6003 ft | 271 kts | 159° |
| 2026-05-06 07:21 | 45.39434 | -122.56287 | 6002 ft | 273 kts | 159° |
| 2026-05-06 07:21 | 45.37665 | -122.55370 | 6002 ft | 274 kts | 159° |
| 2026-05-06 07:22 | 45.35865 | -122.54439 | 6003 ft | 275 kts | 159° |
| 2026-05-06 07:22 | 45.34052 | -122.53501 | 6000 ft | 276 kts | 159° |
| 2026-05-06 07:22 | 45.32261 | -122.52575 | 6000 ft | 276 kts | 159° |
| 2026-05-06 07:22 | 45.30454 | -122.51642 | 6001 ft | 276 kts | 159° |
| 2026-05-06 07:23 | 45.28638 | -122.50704 | 6002 ft | 276 kts | 159° |
| 2026-05-06 07:23 | 45.26845 | -122.49779 | 5999 ft | 277 kts | 159° |
| 2026-05-06 07:23 | 45.25043 | -122.48850 | 6000 ft | 277 kts | 159° |
| 2026-05-06 07:23 | 45.23227 | -122.47915 | 6001 ft | 277 kts | 159° |
| 2026-05-06 07:24 | 45.21404 | -122.46976 | 6000 ft | 277 kts | 159° |
| 2026-05-06 07:24 | 45.19601 | -122.46049 | 6000 ft | 277 kts | 159° |
| 2026-05-06 07:24 | 45.17781 | -122.45113 | 6001 ft | 277 kts | 159° |
| 2026-05-06 07:24 | 45.15979 | -122.44188 | 6000 ft | 277 kts | 159° |
| 2026-05-06 07:25 | 45.14170 | -122.43259 | 6000 ft | 277 kts | 159° |
| 2026-05-06 07:25 | 45.12356 | -122.42329 | 6000 ft | 277 kts | 159° |
| 2026-05-06 07:25 | 45.10540 | -122.41398 | 6000 ft | 277 kts | 159° |
| 2026-05-06 07:25 | 45.08735 | -122.40473 | 6000 ft | 277 kts | 159° |
| 2026-05-06 07:26 | 45.06920 | -122.39544 | 6000 ft | 277 kts | 159° |
| 2026-05-06 07:26 | 45.05125 | -122.38626 | 6000 ft | 277 kts | 159° |
| 2026-05-06 07:26 | 45.03299 | -122.37692 | 6000 ft | 277 kts | 159° |
| 2026-05-06 07:26 | 45.01488 | -122.36768 | 6000 ft | 277 kts | 159° |
| 2026-05-06 07:27 | 44.99685 | -122.35847 | 6000 ft | 277 kts | 159° |
| 2026-05-06 07:27 | 44.97883 | -122.34927 | 6000 ft | 277 kts | 160° |
| 2026-05-06 07:27 | 44.96069 | -122.34002 | 6000 ft | 277 kts | 160° |
| 2026-05-06 07:27 | 44.94253 | -122.33076 | 6000 ft | 277 kts | 160° |
| 2026-05-06 07:28 | 44.92444 | -122.32156 | 6000 ft | 277 kts | 160° |
| 2026-05-06 07:28 | 44.90614 | -122.31224 | 5999 ft | 277 kts | 160° |
| 2026-05-06 07:28 | 44.87007 | -122.29391 | 6000 ft | 277 kts | 160° |
| 2026-05-06 07:29 | 44.85183 | -122.28464 | 6000 ft | 277 kts | 160° |
| 2026-05-06 07:29 | 44.83367 | -122.27543 | 6000 ft | 277 kts | 160° |
| 2026-05-06 07:29 | 44.81575 | -122.26634 | 6000 ft | 277 kts | 160° |
| 2026-05-06 07:29 | 44.79748 | -122.25708 | 6000 ft | 277 kts | 160° |
| 2026-05-06 07:30 | 44.77929 | -122.24786 | 6000 ft | 277 kts | 160° |
| 2026-05-06 07:30 | 44.76129 | -122.23876 | 6000 ft | 277 kts | 160° |
| 2026-05-06 07:30 | 44.74302 | -122.22952 | 6000 ft | 277 kts | 160° |
| 2026-05-06 07:30 | 44.72499 | -122.22041 | 6000 ft | 277 kts | 160° |
| 2026-05-06 07:31 | 44.70699 | -122.21131 | 6000 ft | 277 kts | 160° |
| 2026-05-06 07:31 | 44.68870 | -122.20208 | 6000 ft | 277 kts | 160° |
| 2026-05-06 07:31 | 44.67068 | -122.19299 | 6000 ft | 277 kts | 160° |
| 2026-05-06 07:31 | 44.65244 | -122.18380 | 6000 ft | 277 kts | 160° |
| 2026-05-06 07:32 | 44.63437 | -122.17469 | 6000 ft | 277 kts | 160° |
| 2026-05-06 07:32 | 44.61614 | -122.16551 | 6000 ft | 277 kts | 160° |
| 2026-05-06 07:32 | 44.59813 | -122.15646 | 6000 ft | 277 kts | 160° |
| 2026-05-06 07:32 | 44.58006 | -122.14737 | 6000 ft | 277 kts | 160° |
| 2026-05-06 07:33 | 44.56182 | -122.13821 | 6000 ft | 277 kts | 160° |
| 2026-05-06 07:33 | 44.54378 | -122.12915 | 6000 ft | 277 kts | 160° |
| 2026-05-06 07:33 | 44.52555 | -122.12000 | 5999 ft | 277 kts | 160° |
| 2026-05-06 07:33 | 44.50732 | -122.11086 | 6000 ft | 277 kts | 160° |
| 2026-05-06 07:34 | 44.48919 | -122.10178 | 6000 ft | 277 kts | 160° |
| 2026-05-06 07:34 | 44.47119 | -122.09276 | 5999 ft | 277 kts | 160° |
| 2026-05-06 07:34 | 44.45304 | -122.08368 | 6000 ft | 277 kts | 160° |
| 2026-05-06 07:34 | 44.43477 | -122.07454 | 6000 ft | 277 kts | 160° |
| 2026-05-06 07:35 | 44.41663 | -122.06548 | 6000 ft | 277 kts | 160° |
| 2026-05-06 07:35 | 44.39862 | -122.05648 | 6000 ft | 277 kts | 160° |
| 2026-05-06 07:35 | 44.38044 | -122.04740 | 6000 ft | 277 kts | 160° |
| 2026-05-06 07:35 | 44.36228 | -122.03835 | 6000 ft | 277 kts | 160° |
| 2026-05-06 07:36 | 44.34425 | -122.02937 | 6000 ft | 277 kts | 160° |
| 2026-05-06 07:36 | 44.32613 | -122.02033 | 6000 ft | 277 kts | 160° |
| 2026-05-06 07:36 | 44.30794 | -122.01128 | 6000 ft | 277 kts | 160° |
| 2026-05-06 07:36 | 44.28974 | -122.00222 | 6000 ft | 277 kts | 160° |
| 2026-05-06 07:37 | 44.27148 | -121.99315 | 6000 ft | 277 kts | 160° |
| 2026-05-06 07:37 | 44.25339 | -121.98416 | 6000 ft | 277 kts | 160° |
| 2026-05-06 07:37 | 44.23516 | -121.97510 | 6000 ft | 277 kts | 160° |
| 2026-05-06 07:37 | 44.21713 | -121.96616 | 6000 ft | 277 kts | 160° |
| 2026-05-06 07:38 | 44.19905 | -121.95720 | 6000 ft | 277 kts | 160° |
| 2026-05-06 07:38 | 44.18077 | -121.94813 | 5999 ft | 277 kts | 160° |
| 2026-05-06 07:38 | 44.16259 | -121.93913 | 5999 ft | 277 kts | 160° |
| 2026-05-06 07:38 | 44.14451 | -121.93018 | 5999 ft | 277 kts | 160° |
| 2026-05-06 07:39 | 44.12632 | -121.92120 | 5999 ft | 277 kts | 160° |
| 2026-05-06 07:39 | 44.10823 | -121.91225 | 5999 ft | 277 kts | 160° |
| 2026-05-06 07:39 | 44.08996 | -121.90323 | 5999 ft | 277 kts | 160° |
| 2026-05-06 07:39 | 44.07193 | -121.89432 | 5999 ft | 277 kts | 160° |
| 2026-05-06 07:40 | 44.05373 | -121.88535 | 5999 ft | 277 kts | 160° |
| 2026-05-06 07:40 | 44.03563 | -121.87643 | 5999 ft | 277 kts | 160° |
| 2026-05-06 07:40 | 44.01752 | -121.86751 | 5999 ft | 277 kts | 160° |
| 2026-05-06 07:40 | 43.99929 | -121.85854 | 5999 ft | 277 kts | 160° |
| 2026-05-06 07:41 | 43.98106 | -121.84957 | 5999 ft | 277 kts | 160° |
| 2026-05-06 07:41 | 43.96300 | -121.84068 | 5999 ft | 277 kts | 160° |
| 2026-05-06 07:41 | 43.94461 | -121.83165 | 5999 ft | 277 kts | 160° |
| 2026-05-06 07:41 | 43.92643 | -121.82272 | 5999 ft | 277 kts | 160° |
| 2026-05-06 07:42 | 43.92360 | -121.82133 | 5997 ft | 0 kts | 171° |
| 2026-05-06 07:42 | 43.92360 | -121.82132 | 5997 ft | 0 kts | 178° |
| 2026-05-06 07:42 | 43.92361 | -121.82132 | 5996 ft | 0 kts | 184° |
| 2026-05-06 07:43 | 43.92361 | -121.82131 | 5995 ft | 0 kts | 195° |
| 2026-05-06 07:43 | 43.92362 | -121.82130 | 5994 ft | 0 kts | 206° |
| 2026-05-06 07:44 | 43.92363 | -121.82130 | 5993 ft | 0 kts | 213° |
| 2026-05-06 07:44 | 43.92363 | -121.82129 | 5992 ft | 0 kts | 219° |
| 2026-05-06 07:45 | 43.92364 | -121.82128 | 5991 ft | 0 kts | 222° |
| 2026-05-06 07:45 | 43.92365 | -121.82128 | 5990 ft | 0 kts | 226° |
| 2026-05-06 07:45 | 43.92365 | -121.82127 | 5989 ft | 0 kts | 227° |
| 2026-05-06 07:46 | 43.92366 | -121.82127 | 5988 ft | 0 kts | 229° |
| 2026-05-06 07:46 | 43.92366 | -121.82126 | 5987 ft | 0 kts | 230° |
| 2026-05-06 07:47 | 43.92367 | -121.82125 | 5986 ft | 0 kts | 230° |
| 2026-05-06 07:47 | 43.92368 | -121.82124 | 5985 ft | 0 kts | 231° |
| 2026-05-06 07:48 | 43.92369 | -121.82123 | 5983 ft | 0 kts | 233° |
| 2026-05-06 07:49 | 43.92370 | -121.82123 | 5982 ft | 0 kts | 235° |
| 2026-05-06 07:49 | 43.92370 | -121.82122 | 5981 ft | 0 kts | 235° |
| 2026-05-06 07:50 | 43.92371 | -121.82121 | 5980 ft | 0 kts | 234° |
| 2026-05-06 07:51 | 43.92372 | -121.82120 | 5978 ft | 0 kts | 236° |
| 2026-05-06 07:51 | 43.92372 | -121.82119 | 5977 ft | 0 kts | 236° |
| 2026-05-06 07:51 | 43.92373 | -121.82119 | 5976 ft | 0 kts | 235° |
| 2026-05-06 07:52 | 43.92374 | -121.82118 | 5975 ft | 0 kts | 234° |
| 2026-05-06 07:52 | 43.92374 | -121.82117 | 5974 ft | 0 kts | 234° |
| 2026-05-06 07:53 | 43.92375 | -121.82117 | 5973 ft | 0 kts | 234° |
| 2026-05-06 07:53 | 43.92376 | -121.82116 | 5972 ft | 0 kts | 234° |
| 2026-05-06 07:54 | 43.92376 | -121.82115 | 5970 ft | 0 kts | 233° |
| 2026-05-06 07:54 | 43.92377 | -121.82115 | 5970 ft | 0 kts | 233° |
| 2026-05-06 07:54 | 43.92377 | -121.82114 | 5969 ft | 0 kts | 233° |
| 2026-05-06 07:55 | 43.92378 | -121.82114 | 5968 ft | 0 kts | 234° |
| 2026-05-06 07:56 | 43.92379 | -121.82113 | 5967 ft | 0 kts | 234° |
| 2026-05-06 07:56 | 43.92379 | -121.82112 | 5965 ft | 0 kts | 234° |
| 2026-05-06 07:56 | 43.92380 | -121.82112 | 5965 ft | 0 kts | 234° |
| 2026-05-06 07:57 | 43.92380 | -121.82111 | 5964 ft | 0 kts | 234° |
| 2026-05-06 07:57 | 43.92381 | -121.82111 | 5963 ft | 0 kts | 234° |
| 2026-05-06 07:58 | 43.92381 | -121.82110 | 5962 ft | 0 kts | 234° |
| 2026-05-06 07:58 | 43.92382 | -121.82110 | 5962 ft | 0 kts | 234° |
| 2026-05-06 07:58 | 43.92382 | -121.82109 | 5960 ft | 0 kts | 234° |
| 2026-05-06 07:59 | 43.92383 | -121.82109 | 5960 ft | 0 kts | 233° |
| 2026-05-06 07:59 | 43.92383 | -121.82108 | 5959 ft | 0 kts | 233° |
| 2026-05-06 07:59 | 43.92384 | -121.82107 | 5958 ft | 0 kts | 234° |
| 2026-05-06 08:00 | 43.92385 | -121.82107 | 5957 ft | 0 kts | 236° |
| 2026-05-06 08:00 | 43.92385 | -121.82106 | 5956 ft | 0 kts | 236° |
| 2026-05-06 08:01 | 43.92386 | -121.82106 | 5956 ft | 0 kts | 236° |
| 2026-05-06 08:01 | 43.92386 | -121.82105 | 5954 ft | 0 kts | 235° |
| 2026-05-06 08:02 | 43.92387 | -121.82104 | 5953 ft | 0 kts | 235° |
| 2026-05-06 08:02 | 43.92388 | -121.82104 | 5952 ft | 0 kts | 234° |
| 2026-05-06 08:03 | 43.92388 | -121.82103 | 5951 ft | 0 kts | 234° |
| 2026-05-06 08:03 | 43.92389 | -121.82102 | 5950 ft | 0 kts | 234° |
| 2026-05-06 08:04 | 43.92389 | -121.82101 | 5949 ft | 0 kts | 234° |
| 2026-05-06 08:04 | 43.92390 | -121.82101 | 5948 ft | 0 kts | 234° |
| 2026-05-06 08:05 | 43.92391 | -121.82101 | 5947 ft | 0 kts | 234° |
| 2026-05-06 08:05 | 43.92391 | -121.82100 | 5946 ft | 0 kts | 234° |
| 2026-05-06 08:05 | 43.92392 | -121.82100 | 5946 ft | 0 kts | 234° |
| 2026-05-06 08:05 | 43.92392 | -121.82099 | 5945 ft | 0 kts | 234° |
| 2026-05-06 08:06 | 43.92392 | -121.82098 | 5944 ft | 0 kts | 233° |
| 2026-05-06 08:06 | 43.92393 | -121.82098 | 5943 ft | 0 kts | 233° |
| 2026-05-06 08:07 | 43.92394 | -121.82098 | 5942 ft | 0 kts | 233° |
| 2026-05-06 08:07 | 43.92394 | -121.82097 | 5942 ft | 0 kts | 233° |
| 2026-05-06 08:07 | 43.92395 | -121.82097 | 5941 ft | 0 kts | 233° |
| 2026-05-06 08:08 | 43.92395 | -121.82096 | 5940 ft | 0 kts | 233° |
| 2026-05-06 08:08 | 43.92395 | -121.82095 | 5939 ft | 0 kts | 233° |
| 2026-05-06 08:08 | 43.92396 | -121.82095 | 5938 ft | 0 kts | 233° |
| 2026-05-06 08:09 | 43.92397 | -121.82095 | 5937 ft | 0 kts | 232° |
| 2026-05-06 08:09 | 43.92397 | -121.82094 | 5937 ft | 0 kts | 232° |
| 2026-05-06 08:10 | 43.92397 | -121.82093 | 5936 ft | 0 kts | 233° |
| 2026-05-06 08:10 | 43.92398 | -121.82093 | 5935 ft | 0 kts | 233° |
| 2026-05-06 08:10 | 43.92399 | -121.82092 | 5934 ft | 0 kts | 234° |
| 2026-05-06 08:11 | 43.92399 | -121.82091 | 5933 ft | 0 kts | 234° |
| 2026-05-06 08:11 | 43.92400 | -121.82091 | 5932 ft | 0 kts | 234° |
| 2026-05-06 08:12 | 43.92400 | -121.82090 | 5931 ft | 0 kts | 235° |
| 2026-05-06 08:12 | 43.92401 | -121.82090 | 5930 ft | 0 kts | 235° |
| 2026-05-06 08:12 | 43.92401 | -121.82089 | 5930 ft | 0 kts | 234° |
| 2026-05-06 08:13 | 43.92402 | -121.82089 | 5928 ft | 0 kts | 234° |
| 2026-05-06 08:13 | 43.92403 | -121.82089 | 5927 ft | 0 kts | 235° |
| 2026-05-06 08:14 | 43.92403 | -121.82088 | 5927 ft | 0 kts | 235° |
| 2026-05-06 08:14 | 43.92403 | -121.82087 | 5926 ft | 0 kts | 234° |
| 2026-05-06 08:14 | 43.92404 | -121.82087 | 5925 ft | 0 kts | 234° |
| 2026-05-06 08:15 | 43.92404 | -121.82086 | 5925 ft | 0 kts | 234° |
| 2026-05-06 08:15 | 43.92405 | -121.82086 | 5924 ft | 0 kts | 234° |
| 2026-05-06 08:15 | 43.92405 | -121.82085 | 5924 ft | 0 kts | 235° |
| 2026-05-06 08:16 | 43.92406 | -121.82085 | 5922 ft | 0 kts | 236° |
| 2026-05-06 08:16 | 43.92406 | -121.82084 | 5921 ft | 0 kts | 237° |
| 2026-05-06 08:17 | 43.92407 | -121.82084 | 5920 ft | 0 kts | 237° |
| 2026-05-06 08:17 | 43.92407 | -121.82083 | 5919 ft | 0 kts | 238° |
| 2026-05-06 08:17 | 43.92408 | -121.82082 | 5919 ft | 0 kts | 242° |
| 2026-05-06 08:18 | 43.92409 | -121.82081 | 5916 ft | 0 kts | 244° |
| 2026-05-06 08:18 | 43.92409 | -121.82080 | 5915 ft | 0 kts | 244° |
| 2026-05-06 08:19 | 43.92410 | -121.82079 | 5913 ft | 0 kts | 245° |
| 2026-05-06 08:19 | 43.92410 | -121.82078 | 5912 ft | 0 kts | 246° |
| 2026-05-06 08:19 | 43.92411 | -121.82078 | 5911 ft | 0 kts | 247° |
| 2026-05-06 08:20 | 43.92411 | -121.82077 | 5910 ft | 0 kts | 247° |
| 2026-05-06 08:20 | 43.92411 | -121.82076 | 5909 ft | 0 kts | 247° |
| 2026-05-06 08:20 | 43.92412 | -121.82076 | 5909 ft | 0 kts | 247° |
| 2026-05-06 08:21 | 43.92413 | -121.82075 | 5908 ft | 0 kts | 248° |
| 2026-05-06 08:22 | 43.92413 | -121.82074 | 5907 ft | 0 kts | 247° |
| 2026-05-06 08:22 | 43.92413 | -121.82073 | 5906 ft | 0 kts | 247° |
| 2026-05-06 08:22 | 43.92414 | -121.82073 | 5905 ft | 0 kts | 247° |
| 2026-05-06 08:23 | 43.92414 | -121.82072 | 5905 ft | 0 kts | 246° |
| 2026-05-06 08:23 | 43.92415 | -121.82072 | 5904 ft | 0 kts | 246° |
| 2026-05-06 08:24 | 43.92415 | -121.82071 | 5903 ft | 0 kts | 246° |
| 2026-05-06 08:24 | 43.92416 | -121.82070 | 5902 ft | 0 kts | 245° |
| 2026-05-06 08:25 | 43.92416 | -121.82069 | 5901 ft | 0 kts | 245° |
| 2026-05-06 08:25 | 43.92417 | -121.82069 | 5900 ft | 0 kts | 245° |
| 2026-05-06 08:26 | 43.92417 | -121.82068 | 5900 ft | 0 kts | 245° |
| 2026-05-06 08:26 | 43.92417 | -121.82067 | 5899 ft | 0 kts | 245° |
| 2026-05-06 08:26 | 43.92418 | -121.82067 | 5898 ft | 0 kts | 245° |
| 2026-05-06 08:27 | 43.92418 | -121.82066 | 5898 ft | 0 kts | 245° |
| 2026-05-06 08:27 | 43.92419 | -121.82066 | 5897 ft | 0 kts | 246° |
| 2026-05-06 08:28 | 43.92419 | -121.82065 | 5896 ft | 0 kts | 246° |
| 2026-05-06 08:28 | 43.92419 | -121.82064 | 5895 ft | 0 kts | 246° |
| 2026-05-06 08:28 | 43.92420 | -121.82064 | 5895 ft | 0 kts | 246° |
| 2026-05-06 08:29 | 43.92420 | -121.82063 | 5895 ft | 0 kts | 246° |
| 2026-05-06 08:29 | 43.92421 | -121.82063 | 5894 ft | 0 kts | 247° |
| 2026-05-06 08:30 | 43.92421 | -121.82062 | 5893 ft | 0 kts | 246° |
| 2026-05-06 08:30 | 43.92421 | -121.82061 | 5892 ft | 0 kts | 246° |
| 2026-05-06 08:30 | 43.92422 | -121.82061 | 5891 ft | 0 kts | 246° |
| 2026-05-06 08:31 | 43.92422 | -121.82060 | 5891 ft | 0 kts | 246° |
| 2026-05-06 08:31 | 43.92422 | -121.82059 | 5890 ft | 0 kts | 246° |
| 2026-05-06 08:31 | 43.92423 | -121.82059 | 5890 ft | 0 kts | 246° |
| 2026-05-06 08:32 | 43.92424 | -121.82058 | 5888 ft | 0 kts | 245° |
| 2026-05-06 08:32 | 43.92424 | -121.82057 | 5888 ft | 0 kts | 245° |
| 2026-05-06 08:33 | 43.92424 | -121.82056 | 5887 ft | 0 kts | 245° |
| 2026-05-06 08:33 | 43.92425 | -121.82056 | 5886 ft | 0 kts | 245° |
| 2026-05-06 08:34 | 43.92426 | -121.82055 | 5885 ft | 0 kts | 246° |
| 2026-05-06 08:35 | 43.92426 | -121.82054 | 5884 ft | 0 kts | 245° |
| 2026-05-06 08:35 | 43.92427 | -121.82053 | 5883 ft | 0 kts | 246° |
| 2026-05-06 08:36 | 43.92427 | -121.82052 | 5881 ft | 0 kts | 245° |
| 2026-05-06 08:36 | 43.92428 | -121.82052 | 5881 ft | 0 kts | 245° |
| 2026-05-06 08:37 | 43.92428 | -121.82051 | 5881 ft | 0 kts | 245° |
| 2026-05-06 08:37 | 43.92429 | -121.82050 | 5880 ft | 0 kts | 246° |
| 2026-05-06 08:38 | 43.92429 | -121.82049 | 5878 ft | 0 kts | 247° |
| 2026-05-06 08:38 | 43.92430 | -121.82049 | 5878 ft | 0 kts | 246° |
| 2026-05-06 08:39 | 43.92430 | -121.82048 | 5877 ft | 0 kts | 246° |
| 2026-05-06 08:39 | 43.92430 | -121.82047 | 5876 ft | 0 kts | 245° |
| 2026-05-06 08:39 | 43.92431 | -121.82047 | 5876 ft | 0 kts | 244° |
| 2026-05-06 08:40 | 43.92431 | -121.82046 | 5875 ft | 0 kts | 244° |
| 2026-05-06 08:40 | 43.92432 | -121.82046 | 5875 ft | 0 kts | 243° |
| 2026-05-06 08:41 | 43.92432 | -121.82045 | 5874 ft | 0 kts | 244° |
| 2026-05-06 08:41 | 43.92432 | -121.82044 | 5873 ft | 0 kts | 245° |
| 2026-05-06 08:41 | 43.92433 | -121.82044 | 5872 ft | 0 kts | 245° |
| 2026-05-06 08:42 | 43.92433 | -121.82043 | 5871 ft | 0 kts | 246° |
| 2026-05-06 08:43 | 43.92434 | -121.82042 | 5870 ft | 0 kts | 246° |
| 2026-05-06 08:43 | 43.92434 | -121.82041 | 5869 ft | 0 kts | 245° |
| 2026-05-06 08:43 | 43.92435 | -121.82041 | 5869 ft | 0 kts | 245° |
| 2026-05-06 08:44 | 43.92435 | -121.82040 | 5868 ft | 0 kts | 246° |
| 2026-05-06 08:44 | 43.92436 | -121.82040 | 5867 ft | 0 kts | 246° |
| 2026-05-06 08:45 | 43.92436 | -121.82039 | 5867 ft | 0 kts | 246° |
| 2026-05-06 08:45 | 43.92437 | -121.82038 | 5866 ft | 0 kts | 247° |
| 2026-05-06 08:46 | 43.92437 | -121.82037 | 5865 ft | 0 kts | 246° |
| 2026-05-06 08:46 | 43.92438 | -121.82037 | 5864 ft | 0 kts | 245° |
| 2026-05-06 08:47 | 43.92438 | -121.82036 | 5863 ft | 0 kts | 245° |
| 2026-05-06 08:47 | 43.92439 | -121.82035 | 5862 ft | 0 kts | 245° |
| 2026-05-06 08:48 | 43.92439 | -121.82034 | 5861 ft | 0 kts | 245° |
| 2026-05-06 08:48 | 43.92440 | -121.82034 | 5861 ft | 0 kts | 245° |
| 2026-05-06 08:49 | 43.92440 | -121.82033 | 5860 ft | 0 kts | 244° |
| 2026-05-06 08:49 | 43.92440 | -121.82032 | 5859 ft | 0 kts | 244° |
| 2026-05-06 08:49 | 43.92441 | -121.82032 | 5858 ft | 0 kts | 244° |
| 2026-05-06 08:50 | 43.92441 | -121.82031 | 5858 ft | 0 kts | 244° |
| 2026-05-06 08:50 | 43.92442 | -121.82031 | 5857 ft | 0 kts | 244° |
| 2026-05-06 08:51 | 43.92442 | -121.82030 | 5856 ft | 0 kts | 244° |
| 2026-05-06 08:51 | 43.92442 | -121.82029 | 5855 ft | 0 kts | 244° |
| 2026-05-06 08:51 | 43.92443 | -121.82029 | 5855 ft | 0 kts | 244° |
| 2026-05-06 08:52 | 43.92443 | -121.82028 | 5855 ft | 0 kts | 244° |
| 2026-05-06 08:52 | 43.92444 | -121.82027 | 5854 ft | 0 kts | 246° |
| 2026-05-06 08:53 | 43.92445 | -121.82026 | 5852 ft | 0 kts | 246° |
| 2026-05-06 08:54 | 43.92445 | -121.82025 | 5851 ft | 0 kts | 246° |
| 2026-05-06 08:54 | 43.92445 | -121.82024 | 5850 ft | 0 kts | 247° |
| 2026-05-06 08:54 | 43.92446 | -121.82024 | 5850 ft | 0 kts | 247° |
| 2026-05-06 08:55 | 43.92446 | -121.82023 | 5848 ft | 0 kts | 246° |
| 2026-05-06 08:55 | 43.92447 | -121.82023 | 5848 ft | 0 kts | 246° |
| 2026-05-06 08:56 | 43.92447 | -121.82022 | 5848 ft | 0 kts | 245° |
| 2026-05-06 08:56 | 43.92448 | -121.82021 | 5847 ft | 0 kts | 245° |
| 2026-05-06 08:57 | 43.92448 | -121.82020 | 5845 ft | 0 kts | 246° |
| 2026-05-06 08:57 | 43.92449 | -121.82020 | 5845 ft | 0 kts | 246° |
| 2026-05-06 08:58 | 43.92449 | -121.82019 | 5844 ft | 0 kts | 246° |
| 2026-05-06 08:58 | 43.92450 | -121.82018 | 5843 ft | 0 kts | 246° |
| 2026-05-06 08:59 | 43.92450 | -121.82017 | 5841 ft | 0 kts | 245° |
| 2026-05-06 08:59 | 43.92451 | -121.82017 | 5841 ft | 0 kts | 245° |
| 2026-05-06 09:00 | 43.92451 | -121.82016 | 5841 ft | 0 kts | 245° |
| 2026-05-06 09:00 | 43.92451 | -121.82015 | 5840 ft | 0 kts | 246° |
| 2026-05-06 09:00 | 43.92452 | -121.82015 | 5839 ft | 0 kts | 246° |
| 2026-05-06 09:01 | 43.92452 | -121.82014 | 5839 ft | 0 kts | 246° |
| 2026-05-06 09:01 | 43.92453 | -121.82014 | 5838 ft | 0 kts | 246° |
| 2026-05-06 09:02 | 43.92453 | -121.82013 | 5837 ft | 0 kts | 246° |
| 2026-05-06 09:02 | 43.92453 | -121.82012 | 5836 ft | 0 kts | 246° |
| 2026-05-06 09:02 | 43.92454 | -121.82012 | 5836 ft | 0 kts | 246° |
| 2026-05-06 09:03 | 43.92454 | -121.82011 | 5835 ft | 0 kts | 246° |
| 2026-05-06 09:03 | 43.92455 | -121.82011 | 5835 ft | 0 kts | 247° |
| 2026-05-06 09:04 | 43.92455 | -121.82010 | 5834 ft | 0 kts | 246° |
| 2026-05-06 09:04 | 43.92456 | -121.82009 | 5833 ft | 0 kts | 245° |
| 2026-05-06 09:05 | 43.92456 | -121.82008 | 5832 ft | 0 kts | 245° |
| 2026-05-06 09:05 | 43.92457 | -121.82008 | 5831 ft | 0 kts | 245° |
| 2026-05-06 09:06 | 43.92457 | -121.82007 | 5830 ft | 0 kts | 245° |
| 2026-05-06 09:06 | 43.92458 | -121.82006 | 5829 ft | 0 kts | 245° |
| 2026-05-06 09:07 | 43.92458 | -121.82005 | 5828 ft | 0 kts | 245° |
| 2026-05-06 09:07 | 43.92458 | -121.82004 | 5828 ft | 0 kts | 244° |
| 2026-05-06 09:07 | 43.92459 | -121.82004 | 5827 ft | 0 kts | 244° |
| 2026-05-06 09:08 | 43.92459 | -121.82003 | 5826 ft | 0 kts | 245° |
| 2026-05-06 09:08 | 43.92460 | -121.82003 | 5825 ft | 0 kts | 245° |
| 2026-05-06 09:09 | 43.92460 | -121.82002 | 5825 ft | 0 kts | 244° |
| 2026-05-06 09:09 | 43.92461 | -121.82001 | 5824 ft | 0 kts | 241° |
| 2026-05-06 09:10 | 43.92461 | -121.82000 | 5823 ft | 0 kts | 234° |
| 2026-05-06 09:10 | 43.92462 | -121.82000 | 5822 ft | 0 kts | 231° |
| 2026-05-06 09:11 | 43.92462 | -121.81999 | 5822 ft | 0 kts | 224° |
| 2026-05-06 09:12 | 43.92463 | -121.81999 | 5821 ft | 0 kts | 224° |
| 2026-05-06 09:12 | 43.92464 | -121.81999 | 5821 ft | 0 kts | 225° |
| 2026-05-06 09:14 | 43.92465 | -121.81999 | 5820 ft | 0 kts | 228° |
| 2026-05-06 09:15 | 43.92466 | -121.81998 | 5819 ft | 0 kts | 227° |
| 2026-05-06 09:16 | 43.92467 | -121.81998 | 5818 ft | 0 kts | 230° |
| 2026-05-06 09:17 | 43.92468 | -121.81998 | 5818 ft | 0 kts | 230° |
| 2026-05-06 09:18 | 43.92469 | -121.81998 | 5817 ft | 0 kts | 229° |
| 2026-05-06 09:19 | 43.92470 | -121.81998 | 5816 ft | 0 kts | 233° |
| 2026-05-06 09:20 | 43.92471 | -121.81998 | 5816 ft | 0 kts | 233° |
| 2026-05-06 09:21 | 43.92472 | -121.81998 | 5815 ft | 0 kts | 232° |
| 2026-05-06 09:22 | 43.92473 | -121.81998 | 5814 ft | 0 kts | 232° |
| 2026-05-06 09:23 | 43.92474 | -121.81998 | 5813 ft | 0 kts | 232° |
| 2026-05-06 09:24 | 43.92475 | -121.81998 | 5812 ft | 0 kts | 234° |
| 2026-05-06 09:25 | 43.92476 | -121.81998 | 5812 ft | 0 kts | 229° |
| 2026-05-06 09:26 | 43.92477 | -121.81998 | 5811 ft | 0 kts | 227° |
| 2026-05-06 09:27 | 43.92478 | -121.81998 | 5810 ft | 0 kts | 229° |
| 2026-05-06 09:28 | 43.92479 | -121.81998 | 5809 ft | 0 kts | 229° |
| 2026-05-06 09:29 | 43.92480 | -121.81998 | 5809 ft | 0 kts | 225° |
| 2026-05-06 09:31 | 43.92481 | -121.81998 | 5808 ft | 0 kts | 224° |
| 2026-05-06 09:31 | 43.92482 | -121.81998 | 5807 ft | 0 kts | 221° |
| 2026-05-06 09:33 | 43.92483 | -121.81998 | 5806 ft | 0 kts | 222° |
| 2026-05-06 09:33 | 43.92483 | -121.81997 | 5806 ft | 0 kts | 222° |
| 2026-05-06 09:33 | 43.92484 | -121.81997 | 5806 ft | 0 kts | 222° |
| 2026-05-06 09:34 | 43.92485 | -121.81997 | 5805 ft | 0 kts | 220° |
| 2026-05-06 09:36 | 43.92486 | -121.81997 | 5804 ft | 0 kts | 216° |
| 2026-05-06 09:36 | 43.92487 | -121.81997 | 5804 ft | 0 kts | 214° |
| 2026-05-06 09:38 | 43.92488 | -121.81996 | 5803 ft | 0 kts | 211° |
| 2026-05-06 09:38 | 43.92489 | -121.81996 | 5802 ft | 0 kts | 210° |
| 2026-05-06 09:40 | 43.92490 | -121.81996 | 5801 ft | 0 kts | 207° |
| 2026-05-06 09:41 | 43.92491 | -121.81996 | 5800 ft | 0 kts | 207° |
| 2026-05-06 09:42 | 43.92492 | -121.81996 | 5799 ft | 0 kts | 208° |
| 2026-05-06 09:43 | 43.92493 | -121.81996 | 5799 ft | 0 kts | 207° |
| 2026-05-06 09:44 | 43.92493 | -121.81995 | 5799 ft | 0 kts | 207° |
| 2026-05-06 09:45 | 43.92494 | -121.81995 | 5798 ft | 0 kts | 207° |
| 2026-05-06 09:45 | 43.92495 | -121.81995 | 5797 ft | 0 kts | 207° |
| 2026-05-06 09:47 | 43.92496 | -121.81995 | 5797 ft | 0 kts | 207° |
| 2026-05-06 09:48 | 43.92497 | -121.81995 | 5796 ft | 0 kts | 207° |
| 2026-05-06 09:49 | 43.92498 | -121.81995 | 5795 ft | 0 kts | 208° |
| 2026-05-06 09:50 | 43.92499 | -121.81995 | 5794 ft | 0 kts | 209° |
| 2026-05-06 09:51 | 43.92500 | -121.81995 | 5794 ft | 0 kts | 208° |
| 2026-05-06 09:53 | 43.92501 | -121.81995 | 5793 ft | 0 kts | 209° |
| 2026-05-06 09:54 | 43.92502 | -121.81995 | 5792 ft | 0 kts | 209° |
| 2026-05-06 09:55 | 43.92503 | -121.81995 | 5791 ft | 0 kts | 208° |
| 2026-05-06 09:56 | 43.92504 | -121.81995 | 5791 ft | 0 kts | 207° |
| 2026-05-06 09:57 | 43.92504 | -121.81994 | 5790 ft | 0 kts | 205° |
| 2026-05-06 09:57 | 43.92505 | -121.81994 | 5790 ft | 0 kts | 205° |
| 2026-05-06 09:58 | 43.92506 | -121.81994 | 5789 ft | 0 kts | 204° |
| 2026-05-06 09:59 | 43.92507 | -121.81994 | 5788 ft | 0 kts | 205° |
| 2026-05-06 10:00 | 43.92508 | -121.81994 | 5788 ft | 0 kts | 205° |
| 2026-05-06 10:02 | 43.92509 | -121.81994 | 5787 ft | 0 kts | 205° |
| 2026-05-06 10:02 | 43.92509 | -121.81993 | 5786 ft | 0 kts | 206° |
| 2026-05-06 10:03 | 43.92510 | -121.81993 | 5786 ft | 0 kts | 207° |
| 2026-05-06 10:04 | 43.92511 | -121.81993 | 5785 ft | 0 kts | 208° |
| 2026-05-06 10:05 | 43.92512 | -121.81993 | 5785 ft | 0 kts | 207° |
| 2026-05-06 10:06 | 43.92513 | -121.81993 | 5784 ft | 0 kts | 207° |
| 2026-05-06 10:07 | 43.92514 | -121.81993 | 5783 ft | 0 kts | 207° |
| 2026-05-06 10:09 | 43.92515 | -121.81992 | 5782 ft | 0 kts | 206° |
| 2026-05-06 10:10 | 43.92516 | -121.81992 | 5782 ft | 0 kts | 206° |
| 2026-05-06 10:11 | 43.92517 | -121.81992 | 5781 ft | 0 kts | 204° |
| 2026-05-06 10:12 | 43.92518 | -121.81992 | 5780 ft | 0 kts | 204° |
| 2026-05-06 10:13 | 43.92519 | -121.81992 | 5779 ft | 0 kts | 205° |
| 2026-05-06 10:14 | 43.92520 | -121.81992 | 5778 ft | 0 kts | 203° |
| 2026-05-06 10:16 | 43.92521 | -121.81992 | 5778 ft | 0 kts | 203° |
| 2026-05-06 10:17 | 43.92522 | -121.81992 | 5777 ft | 0 kts | 203° |
| 2026-05-06 10:17 | 45.58723 | -122.58527 | 20 ft | 0 kts | 239° |